Campo, CA

10:54 PM PDT on July 22, 2017 (GMT -0700)
MCMNC1 | | Change Station

Elev 3634 ft 32.72 °N, 116.46 °W | Updated 66 days ago

Clear
Clear
44.0 °F
Feels Like 42 °F
N
4.0
Wind Variable Wind from WSW
Gusts 9.0 mph

Today
High -- | Low -- °F
--% Chance of Precip.
Yesterday
High -- | Low -- °F
Precip. -- in
Pressure 29.84 in
Visibility -9999.0 miles
Clouds
Windchill 42 °F
Dew Point 42 °F
Humidity 93%
Rainfall 0.00 in
Snow Depth Not available.
5:53 AM 7:50 PM
Waning Crescent, 0% visible
METAR KCZZ 230552Z AUTO 07003KT 19/13 A2995 RMK AO1 SLP104 T01940133 10311 20194 51009
Pressure 29.84 in
Visibility -9999.0 miles
Clouds
Windchill 42 °F
Dew Point 42 °F
Humidity 93%
Rainfall 0.00 in
Snow Depth Not available.
5:53 AM 7:50 PM
Waning Crescent, 0% visible
METAR KCZZ 230552Z AUTO 07003KT 19/13 A2995 RMK AO1 SLP104 T01940133 10311 20194 51009

Get Severe Weather Alerts

Thanks for signing up!

Be on the lookout for a verification email in your inbox.

You'll start receiving the daily forecast at 6 AM.

×

10-Day Weather Forecast

Almanac

Astronomy

Jul. 22, 2017 Rise Set
Actual Time
Civil Twilight
Nautical Twilight
Astronomical Twilight
Moon
Length of Visible Light
Length of Day
Tomorrow will be .
, % of the Moon is Illuminated

Today's Extremes

State Highs State Lows

Community

WunderPhotos

Category 6

Welcome to Category 6. This is the collective home for Weather Underground's featured writeups by Dr. Jeff Masters (right), Bob Henson (left), Chris Burt, and other regular contributors.

Nearby

Air Quality

  Air Quality AQ Index Pollutant
Not available.

Snow Depth

Station Depth Elevation

Earthquake Activity

City Distance Mag. Time & Date
Minimum magnitude displayed is 2.5.

Coastal Water Temperatures

Place Temperature

Stations

Nearby Weather Stations

Station Location Temp. Windchill Dew Point Humidity Wind Precip. Elev Updated Type
                   

Watches & Warnings

There are currently no watches in effect.